createdAt,value
2018-09-06T00:04:21.494Z,11.70
2018-09-06T00:09:38.934Z,11.33
2018-09-06T00:14:56.412Z,11.50
2018-09-06T00:20:13.890Z,12.83
2018-09-06T00:25:32.399Z,13.90
2018-09-06T00:30:50.728Z,12.13
2018-09-06T00:36:08.423Z,12.60
2018-09-06T00:41:26.865Z,12.27
2018-09-06T00:46:44.456Z,11.87
2018-09-06T00:52:01.936Z,11.47
2018-09-06T00:57:19.448Z,12.07
2018-09-06T01:02:37.114Z,11.40
2018-09-06T01:07:54.596Z,12.03
2018-09-06T01:13:12.182Z,12.20
2018-09-06T01:18:29.654Z,10.93
2018-09-06T01:23:47.119Z,13.80
2018-09-06T01:29:04.632Z,13.57
2018-09-06T01:34:22.134Z,13.50
2018-09-06T01:39:40.624Z,11.77
2018-09-06T01:44:58.794Z,10.27
2018-09-06T01:50:16.639Z,11.37
2018-09-06T01:55:34.144Z,11.70
2018-09-06T02:00:51.573Z,10.70
2018-09-06T02:06:11.228Z,11.87
2018-09-06T02:11:28.938Z,11.60
2018-09-06T02:16:46.493Z,12.10
2018-09-06T02:22:05.233Z,13.13
2018-09-06T02:27:23.435Z,11.30
2018-09-06T02:32:41.595Z,11.50
2018-09-06T02:37:59.168Z,13.13
2018-09-06T02:43:17.388Z,13.20
2018-09-06T02:48:41.969Z,14.27
2018-09-06T02:53:59.489Z,13.50
2018-09-06T02:59:17.948Z,14.30
2018-09-06T03:04:36.381Z,15.43
2018-09-06T03:09:53.879Z,15.33
2018-09-06T03:15:12.791Z,18.07
2018-09-06T03:20:30.308Z,17.07
2018-09-06T03:25:47.873Z,17.17
2018-09-06T03:31:05.606Z,18.90
2018-09-06T03:36:23.107Z,21.73
2018-09-06T03:41:40.586Z,23.03
2018-09-06T03:46:58.711Z,25.73
2018-09-06T03:52:16.213Z,30.03
2018-09-06T03:57:40.494Z,30.30
2018-09-06T04:02:59.473Z,37.80
2018-09-06T04:08:17.738Z,32.17
2018-09-06T04:13:36.455Z,37.53
2018-09-06T04:18:54.570Z,34.07
2018-09-06T04:24:13.409Z,45.77
2018-09-06T04:29:32.377Z,35.23
2018-09-06T04:34:50.545Z,39.90
2018-09-06T04:40:08.282Z,42.40
2018-09-06T04:45:26.242Z,42.40
2018-09-06T04:50:43.705Z,38.43
2018-09-06T04:56:01.167Z,50.37
2018-09-06T05:01:18.784Z,50.33
2018-09-06T05:06:36.290Z,55.37
2018-09-06T05:11:53.757Z,44.67
2018-09-06T05:17:11.201Z,42.50
2018-09-06T05:22:28.640Z,44.87
2018-09-06T05:27:46.175Z,57.47
2018-09-06T05:33:03.599Z,51.87
2018-09-06T05:38:21.136Z,57.20
2018-09-06T05:43:38.603Z,49.67
2018-09-06T05:48:56.822Z,56.27
2018-09-06T05:54:14.308Z,46.20
2018-09-06T05:59:32.640Z,60.43
2018-09-06T06:04:51.015Z,41.03
2018-09-06T06:10:08.495Z,30.63
2018-09-06T06:15:25.925Z,41.77
2018-09-06T06:20:43.555Z,46.67
2018-09-06T06:26:01.175Z,50.23
2018-09-06T06:31:18.546Z,42.03
2018-09-06T06:36:36.036Z,53.43
2018-09-06T06:41:54.571Z,42.90
2018-09-06T06:47:12.089Z,40.13
2018-09-06T06:52:30.076Z,46.17
2018-09-06T06:57:47.575Z,52.77
2018-09-06T07:03:05.056Z,45.93
2018-09-06T07:08:22.522Z,46.57
2018-09-06T07:13:40.657Z,41.73
2018-09-06T07:18:58.075Z,48.43
2018-09-06T07:24:15.550Z,42.23
2018-09-06T07:29:33.057Z,35.93
2018-09-06T07:34:50.514Z,51.27
2018-09-06T07:40:07.929Z,58.57
2018-09-06T07:45:26.633Z,40.60
2018-09-06T07:50:44.048Z,45.10
2018-09-06T07:56:01.539Z,42.70
2018-09-06T08:01:19.071Z,40.53
2018-09-06T08:06:36.683Z,33.43
2018-09-06T08:11:54.983Z,35.93
2018-09-06T08:17:13.208Z,41.57
2018-09-06T08:22:30.684Z,44.13
2018-09-06T08:27:48.163Z,34.30
2018-09-06T08:33:05.670Z,38.93
2018-09-06T08:38:23.073Z,35.63
2018-09-06T08:43:40.712Z,35.57
2018-09-06T08:48:58.196Z,46.37
2018-09-06T08:54:16.279Z,36.80
2018-09-06T08:59:33.908Z,43.93
2018-09-06T09:04:52.042Z,37.67
2018-09-06T09:10:09.510Z,31.10
2018-09-06T09:15:27.596Z,30.23
2018-09-06T09:20:45.922Z,32.87
2018-09-06T09:26:04.267Z,31.00
2018-09-06T09:31:22.364Z,28.73
2018-09-06T09:36:39.892Z,31.07
2018-09-06T09:41:57.560Z,35.03
2018-09-06T09:52:32.019Z,29.13
2018-09-06T09:57:50.177Z,34.87
2018-09-06T10:03:13.889Z,39.67
2018-09-06T10:08:37.006Z,35.13
2018-09-06T10:13:54.573Z,30.57
2018-09-06T10:19:12.081Z,28.43
2018-09-06T10:24:29.553Z,27.97
2018-09-06T10:29:48.680Z,27.80
2018-09-06T10:35:06.489Z,25.87
2018-09-06T10:40:24.038Z,28.47
2018-09-06T10:45:41.578Z,29.73
2018-09-06T10:50:59.078Z,27.23
2018-09-06T10:56:17.495Z,27.90
2018-09-06T11:01:35.065Z,27.20
2018-09-06T11:06:52.688Z,27.80
2018-09-06T11:12:10.167Z,24.97
2018-09-06T11:17:27.664Z,23.67
2018-09-06T11:22:45.182Z,28.13
2018-09-06T11:28:02.591Z,23.73
2018-09-06T11:33:20.084Z,27.83
2018-09-06T11:38:37.568Z,33.50
2018-09-06T11:43:55.143Z,25.37
2018-09-06T11:49:12.599Z,24.90
2018-09-06T11:54:30.072Z,25.57
2018-09-06T11:59:48.114Z,21.80
2018-09-06T12:05:05.669Z,22.63
2018-09-06T12:10:23.852Z,22.83
2018-09-06T12:15:42.617Z,24.67
2018-09-06T12:21:00.079Z,28.00
2018-09-06T12:26:17.583Z,27.73
2018-09-06T12:31:35.172Z,26.67
2018-09-06T12:36:52.730Z,27.67
2018-09-06T12:42:10.526Z,26.93
2018-09-06T12:47:27.999Z,22.67
2018-09-06T12:52:45.475Z,23.37
2018-09-06T12:58:02.984Z,21.30
2018-09-06T13:03:20.635Z,22.63
2018-09-06T13:08:38.173Z,27.87
2018-09-06T13:13:55.728Z,26.90
2018-09-06T13:19:13.151Z,26.57
2018-09-06T13:24:30.634Z,26.70
2018-09-06T13:29:48.193Z,26.43
2018-09-06T13:35:05.696Z,26.77
2018-09-06T13:40:24.132Z,25.87
2018-09-06T13:45:41.671Z,23.87
2018-09-06T13:50:59.199Z,28.93
2018-09-06T13:56:17.483Z,30.63
2018-09-06T14:01:35.164Z,26.40
2018-09-06T14:06:54.084Z,24.97
2018-09-06T14:12:11.662Z,25.50
2018-09-06T14:17:29.158Z,30.57
2018-09-06T14:22:46.606Z,28.23
2018-09-06T14:28:04.178Z,30.63
2018-09-06T14:33:21.660Z,29.30
2018-09-06T14:38:39.199Z,32.50
2018-09-06T14:43:56.701Z,32.43
2018-09-06T14:49:14.156Z,29.53
2018-09-06T14:54:32.224Z,30.37
2018-09-06T14:59:49.699Z,27.27
2018-09-06T15:05:07.257Z,27.60
2018-09-06T15:10:24.827Z,32.33
2018-09-06T15:15:42.326Z,36.97
2018-09-06T15:20:59.847Z,37.53
2018-09-06T15:26:17.302Z,39.17
2018-09-06T15:31:35.786Z,38.83
2018-09-06T15:36:53.204Z,40.00
2018-09-06T15:42:10.690Z,40.13
2018-09-06T15:47:28.131Z,39.93
2018-09-06T15:52:45.698Z,42.63
2018-09-06T15:58:03.130Z,38.73
2018-09-06T16:03:20.602Z,40.33
2018-09-06T16:08:38.051Z,44.23
2018-09-06T16:13:55.521Z,42.60
2018-09-06T16:19:13.020Z,46.20
2018-09-06T16:24:30.468Z,46.03
2018-09-06T16:29:48.009Z,47.97
2018-09-06T16:35:05.509Z,45.47
2018-09-06T16:40:22.972Z,42.40
2018-09-06T16:45:40.387Z,41.50
2018-09-06T16:50:57.894Z,44.23
2018-09-06T16:56:15.388Z,45.30
2018-09-06T17:01:32.812Z,42.07
2018-09-06T17:06:50.393Z,51.30
2018-09-06T17:12:07.850Z,45.70
2018-09-06T17:17:25.298Z,41.43
2018-09-06T17:22:42.768Z,46.33
2018-09-06T17:28:00.212Z,42.77
2018-09-06T17:33:17.724Z,44.60
2018-09-06T17:38:35.239Z,43.20
2018-09-06T17:43:52.635Z,40.37
2018-09-06T17:49:10.082Z,36.87
2018-09-06T17:54:27.624Z,34.77
2018-09-06T17:59:45.055Z,41.47
2018-09-06T18:05:02.615Z,39.87
2018-09-06T18:10:20.192Z,40.13
2018-09-06T18:15:38.973Z,38.63
2018-09-06T18:20:57.066Z,44.67
2018-09-06T18:26:14.740Z,48.63
2018-09-06T18:31:32.270Z,41.87
2018-09-06T18:36:49.742Z,48.80
2018-09-06T18:42:07.193Z,60.43
2018-09-06T18:47:25.181Z,53.83
2018-09-06T18:52:42.616Z,52.97
2018-09-06T18:58:00.075Z,54.73
2018-09-06T19:03:17.503Z,51.33
2018-09-06T19:08:35.032Z,43.13
2018-09-06T19:13:52.560Z,42.17
2018-09-06T19:19:09.995Z,33.57
2018-09-06T19:24:27.487Z,31.63
2018-09-06T19:29:44.973Z,25.77
2018-09-06T19:35:02.506Z,27.33
2018-09-06T19:40:20.028Z,25.00
2018-09-06T19:45:37.561Z,25.90
2018-09-06T19:50:55.078Z,23.47
2018-09-06T19:56:12.655Z,24.90
2018-09-06T20:01:30.138Z,24.63
2018-09-06T20:06:47.592Z,23.70
2018-09-06T20:12:05.139Z,25.10
2018-09-06T20:17:22.611Z,28.37
2018-09-06T20:22:40.109Z,21.83
2018-09-06T20:27:57.554Z,20.40
2018-09-06T20:33:15.034Z,21.37
2018-09-06T20:38:32.446Z,21.73
2018-09-06T20:43:49.908Z,21.83
2018-09-06T20:49:07.376Z,22.03
2018-09-06T20:54:24.938Z,22.63
2018-09-06T20:59:42.648Z,23.70
2018-09-06T21:05:00.188Z,22.10
2018-09-06T21:10:17.715Z,23.80
2018-09-06T21:15:35.161Z,19.93
2018-09-06T21:20:52.649Z,29.20
2018-09-06T21:26:10.117Z,33.50
2018-09-06T21:31:27.648Z,33.03
2018-09-06T21:36:45.255Z,31.93
2018-09-06T21:42:02.686Z,30.30
2018-09-06T21:47:20.170Z,28.37
2018-09-06T21:52:37.550Z,31.20
2018-09-06T21:57:55.000Z,29.50
2018-09-06T22:03:18.004Z,31.93
2018-09-06T22:08:35.578Z,33.93
2018-09-06T22:13:53.023Z,31.97
2018-09-06T22:19:10.527Z,33.43
2018-09-06T22:24:27.928Z,31.90
2018-09-06T22:29:45.392Z,30.10
2018-09-06T22:35:02.984Z,32.17
2018-09-06T22:40:20.523Z,28.30
2018-09-06T22:45:38.066Z,30.13
2018-09-06T22:50:55.549Z,31.67
2018-09-06T22:56:13.115Z,32.07
2018-09-06T23:01:30.594Z,28.40
2018-09-06T23:06:48.126Z,32.17
2018-09-06T23:12:05.578Z,30.00
2018-09-06T23:17:23.268Z,27.53
2018-09-06T23:22:40.942Z,25.17
2018-09-06T23:27:58.612Z,29.03
2018-09-06T23:33:16.072Z,26.87
2018-09-06T23:38:33.527Z,28.33
2018-09-06T23:43:51.114Z,30.60
2018-09-06T23:49:08.629Z,30.13
2018-09-06T23:54:26.071Z,30.63
2018-09-06T23:59:43.547Z,27.63
